RJAH METAR and TAF | Updated Today

RJAH METAR

Hyakuri Airport

Observation time: 39 min. ago

RJAH 060800Z 36004KT 9999 FEW020 BKN050 10/06 Q1027

Need help? Read our tutorial on how to read METARs or read the parsed version below.

Hyakuri Airport (RJAH) METAR

  • Weather conditions on Mon, 06 Dec 2021 08:00:00 +0000 (39 min. ago):
  • Present conditions: Dry
  • Clouds: A few at 610 meters; broken sky at 1524 meters
  • Visibility: Greater than 10 km
  • Wind: 360 degrees at 4 knots
  • Temperature: 10 celsius
  • Dew point: 6 celsius
  • Pressure: 1027 millibars
  • Remarks: None


Useful to know...

RJAH TAF

Hyakuri Airport

TAF RJAH 060505Z 0606/0712 02006KT 9999 FEW015 BKN030 BECMG 0700/0703 04018KT
Observation time: 3:34 hr. ago
Need help? Read our tutorial on how to read TAFs or read the parsed version below.

Parsed version of TAF for Hyakuri Airport (RJAH)

  • From 06 December at 06:00 UTC, to day 07 of the month at 12:00 UTC
  • Clouds: A few at 457 meters; broken sky at 914 meters
  • Visibility: Greater than 10 km
  • Wind: 20 degrees at 6
  • Expected to arise soon, from 07 December at 00:00 UTC, to day 07 of the month at 03:00 UTC
  • Wind: 40 degrees at 18